Time;durP1;ratioP1;P1;durP2;ratioP2;P2;SDS_P1;SDS_P2;PMS_P1;PMS_P2;Temp;Humidity;BMP_temperature;BMP_pressure;BME280_temperature;BME280_humidity;BME280_pressure;Samples;Min_cycle;Max_cycle;Signal;HPM_P1;HPM_P2
2023/09/15 00:00:47;;;;;;;54.92;51.55;;;;;;;;;;5019718;28;20052;-58
2023/09/15 00:03:12;;;;;;;35.53;33.30;;;;;;;;;;5019677;28;20029;-59
2023/09/15 00:05:37;;;;;;;80.63;75.70;;;;;;;;;;5023358;28;20029;-59
2023/09/15 00:08:04;;;;;;;47.47;44.63;;;;;;;;;;5021739;28;20091;-59
2023/09/15 00:10:29;;;;;;;42.85;40.08;;;;;;;;;;5016954;28;20025;-57
2023/09/15 00:12:55;;;;;;;31.23;29.07;;;;;;;;;;5014562;28;20036;-57
2023/09/15 00:15:20;;;;;;;38.67;36.23;;;;;;;;;;5024172;28;20451;-57
2023/09/15 00:17:46;;;;;;;33.00;30.67;;;;;;;;;;5021441;28;20444;-59
2023/09/15 00:20:14;;;;;;;142.15;132.98;;;;;;;;;;5018081;28;20029;-59
2023/09/15 00:22:49;;;;;;;69.80;65.75;;;;;;;;;;5019410;28;20037;-59
2023/09/15 00:25:18;;;;;;;41.42;38.88;;;;;;;;;;5017212;28;20432;-58
2023/09/15 00:27:45;;;;;;;113.70;105.60;;;;;;;;;;5013741;28;20436;-57
2023/09/15 00:30:11;;;;;;;57.45;53.53;;;;;;;;;;5021075;28;20051;-58
2023/09/15 00:32:36;;;;;;;32.72;30.55;;;;;;;;;;5018832;28;20505;-57
2023/09/15 00:35:01;;;;;;;55.87;52.13;;;;;;;;;;5026088;28;20021;-58
2023/09/15 00:37:26;;;;;;;46.20;43.17;;;;;;;;;;5012501;28;20026;-58
2023/09/15 00:39:51;;;;;;;134.70;126.03;;;;;;;;;;5012077;28;20087;-58
2023/09/15 00:42:19;;;;;;;28.63;26.57;;;;;;;;;;5022397;28;20044;-58
2023/09/15 00:44:45;;;;;;;47.58;44.60;;;;;;;;;;5014360;28;20056;-57
2023/09/15 00:47:10;;;;;;;42.90;40.35;;;;;;;;;;5009674;28;20462;-56
2023/09/15 00:49:36;;;;;;;42.63;39.80;;;;;;;;;;5016093;28;20036;-58
2023/09/15 00:52:02;;;;;;;33.00;30.95;;;;;;;;;;5009048;28;20508;-58
2023/09/15 00:54:28;;;;;;;62.05;58.53;;;;;;;;;;5018920;28;20022;-58
2023/09/15 00:56:53;;;;;;;52.55;49.05;;;;;;;;;;5015449;28;20022;-57
2023/09/15 00:59:18;;;;;;;52.90;49.80;;;;;;;;;;5015205;28;20117;-57
2023/09/15 01:01:47;;;;;;;53.03;49.53;;;;;;;;;;5014505;28;20148;-58
2023/09/15 01:04:12;;;;;;;62.47;58.63;;;;;;;;;;5017421;28;20166;-58
2023/09/15 01:06:38;;;;;;;57.15;53.65;;;;;;;;;;5021062;28;20516;-58
2023/09/15 01:09:05;;;;;;;30.27;28.30;;;;;;;;;;5027876;28;20040;-57
2023/09/15 01:11:31;;;;;;;73.97;69.75;;;;;;;;;;5016259;28;20034;-57
2023/09/15 01:13:56;;;;;;;36.15;33.83;;;;;;;;;;5020733;28;20024;-58
2023/09/15 01:16:35;;;;;;;46.53;43.57;;;;;;;;;;5013671;28;20018;-58
2023/09/15 01:19:08;;;;;;;51.15;47.50;;;;;;;;;;5020394;28;20088;-57
2023/09/15 01:21:36;;;;;;;50.17;47.05;;;;;;;;;;5017371;28;20013;-58
2023/09/15 01:24:14;;;;;;;90.30;84.47;;;;;;;;;;5022619;28;20028;-58
2023/09/15 01:26:54;;;;;;;75.72;70.55;;;;;;;;;;5029406;28;20054;-57
2023/09/15 01:29:38;;;;;;;64.03;59.97;;;;;;;;;;5013352;28;20022;-57
2023/09/15 01:32:03;;;;;;;;;;;;;;;;;;5020256;28;20124;-58
2023/09/15 01:34:29;;;;;;;59.72;56.00;;;;;;;;;;5015261;28;19909;-57
2023/09/15 01:36:54;;;;;;;43.72;40.97;;;;;;;;;;5023889;28;20139;-57
2023/09/15 01:39:19;;;;;;;58.67;54.90;;;;;;;;;;5017064;28;20033;-57
2023/09/15 01:41:45;;;;;;;48.78;45.90;;;;;;;;;;5013740;28;20026;-57
2023/09/15 01:44:10;;;;;;;34.07;32.03;;;;;;;;;;5025583;28;20104;-58
2023/09/15 01:46:35;;;;;;;34.58;32.55;;;;;;;;;;5028087;28;20022;-57
2023/09/15 01:49:01;;;;;;;31.38;29.15;;;;;;;;;;5019825;28;20088;-58
2023/09/15 01:51:27;;;;;;;36.63;34.28;;;;;;;;;;5014436;28;20457;-57
2023/09/15 01:53:52;;;;;;;;;;;;;;;;;;5013551;28;20076;-57
2023/09/15 01:56:18;;;;;;;62.45;58.85;;;;;;;;;;5023293;28;19913;-57
2023/09/15 01:58:43;;;;;;;35.40;33.00;;;;;;;;;;5026230;28;20039;-56
2023/09/15 02:01:08;;;;;;;31.60;29.67;;;;;;;;;;5022056;28;20028;-58
2023/09/15 02:03:34;;;;;;;44.83;42.10;;;;;;;;;;5012167;28;20029;-58
2023/09/15 02:06:03;;;;;;;46.28;43.42;;;;;;;;;;5011019;28;20030;-57
2023/09/15 02:08:28;;;;;;;39.45;36.92;;;;;;;;;;5012028;28;20034;-58
2023/09/15 02:10:53;;;;;;;68.97;64.97;;;;;;;;;;5011873;28;20099;-58
2023/09/15 02:13:18;;;;;;;33.42;31.20;;;;;;;;;;5021230;28;20099;-57
2023/09/15 02:15:43;;;;;;;49.60;46.35;;;;;;;;;;5013422;28;20120;-58
2023/09/15 02:18:09;;;;;;;43.20;40.57;;;;;;;;;;5020102;28;20033;-58
2023/09/15 02:20:34;;;;;;;102.38;95.57;;;;;;;;;;5012892;28;20022;-57
2023/09/15 02:23:03;;;;;;;69.63;65.20;;;;;;;;;;5013438;28;20017;-56
2023/09/15 02:25:28;;;;;;;72.03;67.63;;;;;;;;;;5015089;28;20100;-57
2023/09/15 02:27:54;;;;;;;39.13;36.60;;;;;;;;;;5016086;28;20173;-57
2023/09/15 02:30:19;;;;;;;33.58;31.55;;;;;;;;;;5011738;28;20052;-58
2023/09/15 02:32:44;;;;;;;46.23;43.20;;;;;;;;;;5015285;28;20056;-58
2023/09/15 02:35:09;;;;;;;51.42;48.22;;;;;;;;;;5012200;28;20018;-58
2023/09/15 02:37:35;;;;;;;145.30;135.73;;;;;;;;;;5016675;28;20481;-57
2023/09/15 02:40:00;;;;;;;46.57;43.77;;;;;;;;;;5011472;28;20018;-57
2023/09/15 02:42:26;;;;;;;53.90;50.70;;;;;;;;;;5012763;28;20032;-57
2023/09/15 02:44:51;;;;;;;46.17;43.22;;;;;;;;;;5027961;28;20009;-56
2023/09/15 02:47:16;;;;;;;51.57;48.53;;;;;;;;;;5012811;28;20385;-57
2023/09/15 02:49:41;;;;;;;54.67;51.30;;;;;;;;;;5016201;28;20022;-58
2023/09/15 02:52:06;;;;;;;59.20;55.40;;;;;;;;;;5013184;28;20030;-57
2023/09/15 02:54:31;;;;;;;46.20;43.47;;;;;;;;;;5020106;28;20018;-57
2023/09/15 02:56:57;;;;;;;54.53;51.23;;;;;;;;;;5021556;28;20075;-57
2023/09/15 02:59:22;;;;;;;72.05;67.28;;;;;;;;;;5018155;28;20506;-58
2023/09/15 03:01:47;;;;;;;67.33;63.07;;;;;;;;;;5013317;28;20097;-57
2023/09/15 03:04:12;;;;;;;65.65;61.55;;;;;;;;;;5018359;28;20480;-58
2023/09/15 03:06:39;;;;;;;66.87;62.97;;;;;;;;;;5021606;28;20470;-57
2023/09/15 03:09:05;;;;;;;58.33;54.55;;;;;;;;;;5015175;28;20013;-57
2023/09/15 03:11:31;;;;;;;111.80;104.88;;;;;;;;;;5024703;28;20025;-56
2023/09/15 03:13:56;;;;;;;61.03;57.33;;;;;;;;;;5019737;28;20025;-56
2023/09/15 03:16:23;;;;;;;160.80;150.10;;;;;;;;;;5011145;28;20452;-57
2023/09/15 03:18:49;;;;;;;95.80;89.75;;;;;;;;;;5017710;28;20021;-56
2023/09/15 03:21:14;;;;;;;92.65;86.65;;;;;;;;;;5027682;28;20122;-57
2023/09/15 03:23:39;;;;;;;72.93;68.72;;;;;;;;;;5021711;28;20488;-57
2023/09/15 03:26:05;;;;;;;125.30;117.38;;;;;;;;;;5019608;28;20425;-57
2023/09/15 03:28:31;;;;;;;57.93;54.57;;;;;;;;;;5011242;28;20386;-57
2023/09/15 03:30:56;;;;;;;64.60;60.70;;;;;;;;;;5014637;28;20034;-56
2023/09/15 03:33:22;;;;;;;134.43;125.45;;;;;;;;;;5016467;28;20045;-56
2023/09/15 03:35:47;;;;;;;63.90;60.10;;;;;;;;;;5021740;28;20036;-57
2023/09/15 03:38:12;;;;;;;63.55;59.85;;;;;;;;;;5025271;28;20397;-57
2023/09/15 03:40:37;;;;;;;62.20;58.08;;;;;;;;;;5014302;28;20042;-57
2023/09/15 03:43:04;;;;;;;108.25;101.68;;;;;;;;;;5011444;28;20034;-57
2023/09/15 03:45:29;;;;;;;71.65;67.43;;;;;;;;;;5011113;28;20109;-57
2023/09/15 03:47:54;;;;;;;81.68;76.82;;;;;;;;;;5011522;28;20104;-56
2023/09/15 03:50:21;;;;;;;71.53;66.87;;;;;;;;;;5015240;28;20409;-57
2023/09/15 03:52:47;;;;;;;72.45;68.03;;;;;;;;;;5015335;28;20065;-57
2023/09/15 03:55:12;;;;;;;70.28;66.03;;;;;;;;;;5012931;28;20046;-57
2023/09/15 03:57:37;;;;;;;76.20;71.57;;;;;;;;;;5015629;28;20022;-58
2023/09/15 04:00:03;;;;;;;54.63;51.13;;;;;;;;;;5020135;28;20076;-57
2023/09/15 04:02:28;;;;;;;79.85;74.97;;;;;;;;;;5013734;28;20120;-57
2023/09/15 04:04:54;;;;;;;65.80;61.60;;;;;;;;;;5018831;28;20093;-58
2023/09/15 04:07:19;;;;;;;66.77;62.77;;;;;;;;;;5023911;28;20464;-58
2023/09/15 04:09:45;;;;;;;94.60;88.63;;;;;;;;;;5025402;28;20091;-57
2023/09/15 04:12:10;;;;;;;94.87;89.20;;;;;;;;;;5019826;28;20029;-58
2023/09/15 04:14:35;;;;;;;91.07;85.53;;;;;;;;;;5021744;28;20021;-58
2023/09/15 04:17:03;;;;;;;54.80;51.50;;;;;;;;;;5021867;28;20034;-57
2023/09/15 04:19:29;;;;;;;81.05;76.53;;;;;;;;;;5008536;28;20458;-56
2023/09/15 04:21:54;;;;;;;74.70;70.10;;;;;;;;;;5018966;28;20030;-57
2023/09/15 04:24:19;;;;;;;96.55;90.78;;;;;;;;;;5012692;28;20448;-57
2023/09/15 04:26:45;;;;;;;71.47;67.03;;;;;;;;;;5018936;28;20548;-57
2023/09/15 04:29:10;;;;;;;76.18;71.75;;;;;;;;;;5017128;28;20024;-58
2023/09/15 04:31:37;;;;;;;72.07;67.83;;;;;;;;;;5020966;28;20466;-58
2023/09/15 04:34:02;;;;;;;116.28;108.93;;;;;;;;;;5020518;28;20401;-57
2023/09/15 04:36:27;;;;;;;66.22;62.30;;;;;;;;;;5018418;28;20028;-58
2023/09/15 04:38:52;;;;;;;72.45;67.95;;;;;;;;;;5019483;28;20109;-57
2023/09/15 04:41:18;;;;;;;58.40;54.38;;;;;;;;;;5015305;28;20021;-57
2023/09/15 04:43:43;;;;;;;64.13;60.33;;;;;;;;;;5018035;28;20038;-57
2023/09/15 04:46:08;;;;;;;70.00;65.83;;;;;;;;;;5023895;28;20014;-58
2023/09/15 04:48:33;;;;;;;91.82;86.53;;;;;;;;;;5015580;28;20183;-56
2023/09/15 04:50:59;;;;;;;84.70;79.45;;;;;;;;;;5016274;28;20037;-57
2023/09/15 04:53:24;;;;;;;136.00;127.60;;;;;;;;;;5016466;28;20127;-58
2023/09/15 04:55:49;;;;;;;77.18;72.28;;;;;;;;;;5015210;28;20452;-57
2023/09/15 04:58:14;;;;;;;132.35;123.90;;;;;;;;;;5012350;28;20034;-57
2023/09/15 05:00:40;;;;;;;84.73;79.67;;;;;;;;;;5021412;28;20771;-58
2023/09/15 05:03:08;;;;;;;90.70;85.28;;;;;;;;;;5030259;28;20018;-57
2023/09/15 05:05:33;;;;;;;79.60;74.82;;;;;;;;;;5028337;28;20021;-57
2023/09/15 05:07:58;;;;;;;73.05;68.57;;;;;;;;;;5017564;28;20435;-57
2023/09/15 05:10:23;;;;;;;71.90;67.43;;;;;;;;;;5022708;28;20037;-56
2023/09/15 05:12:48;;;;;;;61.25;57.67;;;;;;;;;;5015922;28;20026;-58
2023/09/15 05:15:13;;;;;;;72.95;68.47;;;;;;;;;;5048767;28;20100;-57
2023/09/15 05:17:39;;;;;;;64.97;61.07;;;;;;;;;;5020082;28;20025;-57
2023/09/15 05:20:05;;;;;;;77.47;72.82;;;;;;;;;;5020578;28;20491;-58
2023/09/15 05:22:30;;;;;;;74.57;70.18;;;;;;;;;;5030022;28;20044;-57
2023/09/15 05:24:55;;;;;;;80.67;75.77;;;;;;;;;;5027618;28;20021;-58
2023/09/15 05:27:21;;;;;;;66.07;62.13;;;;;;;;;;5030031;28;20092;-58
2023/09/15 05:29:46;;;;;;;81.93;76.75;;;;;;;;;;5032289;28;20075;-58
2023/09/15 05:32:11;;;;;;;80.10;75.27;;;;;;;;;;5032803;28;20037;-58
2023/09/15 05:34:36;;;;;;;125.15;116.88;;;;;;;;;;5026059;28;20041;-58
2023/09/15 05:37:03;;;;;;;147.67;138.17;;;;;;;;;;5024631;28;20021;-58
2023/09/15 05:39:28;;;;;;;;;;;;;;;;;;5030632;28;20018;-59
2023/09/15 05:41:53;;;;;;;146.93;137.18;;;;;;;;;;5039075;28;20018;-57
2023/09/15 05:44:18;;;;;;;88.57;83.13;;;;;;;;;;5015746;28;20026;-58
2023/09/15 05:46:44;;;;;;;75.77;71.00;;;;;;;;;;5029545;28;20021;-58
2023/09/15 05:49:09;;;;;;;98.13;92.07;;;;;;;;;;5022769;28;20078;-59
2023/09/15 05:51:34;;;;;;;74.40;69.97;;;;;;;;;;5022548;28;20894;-57
2023/09/15 05:53:59;;;;;;;77.53;72.90;;;;;;;;;;5026806;28;20029;-59
2023/09/15 05:56:24;;;;;;;80.35;75.68;;;;;;;;;;5048739;28;20028;-58
2023/09/15 05:58:50;;;;;;;89.93;84.40;;;;;;;;;;5045041;28;20025;-59
2023/09/15 06:01:15;;;;;;;79.80;74.97;;;;;;;;;;5029026;28;20026;-58
2023/09/15 06:03:40;;;;;;;103.30;97.07;;;;;;;;;;5022363;28;20033;-57
2023/09/15 06:06:05;;;;;;;61.33;57.47;;;;;;;;;;5010804;28;20572;-58
2023/09/15 06:08:30;;;;;;;81.77;76.80;;;;;;;;;;5009945;28;20382;-58
2023/09/15 06:10:56;;;;;;;67.03;63.10;;;;;;;;;;5015230;28;20033;-59
2023/09/15 06:13:22;;;;;;;62.70;58.92;;;;;;;;;;5017442;28;20116;-58
2023/09/15 06:15:47;;;;;;;69.70;65.13;;;;;;;;;;5027753;28;20032;-58
2023/09/15 06:18:12;;;;;;;68.47;64.50;;;;;;;;;;5024426;28;20495;-59
2023/09/15 06:20:38;;;;;;;49.78;46.58;;;;;;;;;;5017044;28;20025;-60
2023/09/15 06:23:03;;;;;;;62.35;58.35;;;;;;;;;;5018610;28;20044;-58
2023/09/15 06:25:30;;;;;;;75.20;70.68;;;;;;;;;;5033293;28;20047;-57
2023/09/15 06:27:55;;;;;;;80.70;75.47;;;;;;;;;;5034333;28;20497;-59
2023/09/15 06:30:21;;;;;;;181.18;168.93;;;;;;;;;;5017851;28;20022;-59
2023/09/15 06:32:46;;;;;;;109.27;102.10;;;;;;;;;;5020815;28;20018;-58
2023/09/15 06:35:13;;;;;;;167.82;156.32;;;;;;;;;;5016555;28;23342;-58
2023/09/15 06:37:38;;;;;;;194.93;182.32;;;;;;;;;;5020020;28;20033;-57
2023/09/15 06:40:03;;;;;;;105.72;99.20;;;;;;;;;;5014578;28;20033;-57
2023/09/15 06:42:28;;;;;;;100.97;94.68;;;;;;;;;;5011596;28;20048;-57
2023/09/15 06:44:54;;;;;;;101.83;95.33;;;;;;;;;;5010633;28;20472;-57
2023/09/15 06:47:19;;;;;;;104.70;98.00;;;;;;;;;;5014799;28;20474;-57
2023/09/15 06:49:44;;;;;;;123.07;115.13;;;;;;;;;;5013051;28;20025;-57
2023/09/15 06:52:09;;;;;;;99.30;93.10;;;;;;;;;;5013486;28;20084;-58
2023/09/15 06:54:34;;;;;;;46.22;43.42;;;;;;;;;;5019562;28;20105;-58
2023/09/15 06:56:59;;;;;;;104.90;98.37;;;;;;;;;;5017981;28;20033;-57
2023/09/15 06:59:24;;;;;;;78.88;73.97;;;;;;;;;;5021279;28;20156;-58
2023/09/15 07:01:50;;;;;;;97.70;91.40;;;;;;;;;;5010371;28;20029;-58
2023/09/15 07:04:15;;;;;;;46.13;43.10;;;;;;;;;;5021781;28;20465;-57
2023/09/15 07:06:40;;;;;;;64.13;60.10;;;;;;;;;;5022453;28;20026;-57
2023/09/15 07:09:05;;;;;;;61.28;57.55;;;;;;;;;;5016206;28;20033;-57
2023/09/15 07:11:31;;;;;;;132.57;123.90;;;;;;;;;;5020597;28;20474;-57
2023/09/15 07:13:56;;;;;;;215.77;200.40;;;;;;;;;;5011257;28;20018;-57
2023/09/15 07:16:21;;;;;;;91.30;85.73;;;;;;;;;;5011110;28;20037;-58
2023/09/15 07:18:46;;;;;;;158.00;148.35;;;;;;;;;;5023363;28;20100;-57
2023/09/15 07:21:11;;;;;;;198.47;185.17;;;;;;;;;;5026903;28;20022;-57
2023/09/15 07:23:36;;;;;;;115.23;107.77;;;;;;;;;;5013856;28;20042;-58
2023/09/15 07:26:01;;;;;;;97.55;91.38;;;;;;;;;;5030858;28;20436;-58
2023/09/15 07:28:27;;;;;;;41.30;38.80;;;;;;;;;;5031014;28;20025;-57
2023/09/15 07:31:00;;;;;;;67.23;63.23;;;;;;;;;;5028676;28;20040;-56
2023/09/15 07:33:25;;;;;;;95.22;89.13;;;;;;;;;;5027849;28;20095;-58
2023/09/15 07:35:56;;;;;;;84.85;79.80;;;;;;;;;;5018260;28;20470;-57
2023/09/15 07:38:22;;;;;;;128.25;119.88;;;;;;;;;;5017628;28;20033;-58
2023/09/15 07:40:47;;;;;;;68.93;64.83;;;;;;;;;;5028041;28;20017;-58
2023/09/15 07:43:13;;;;;;;98.72;92.88;;;;;;;;;;5030946;28;20358;-58
2023/09/15 07:45:38;;;;;;;42.78;40.22;;;;;;;;;;5030782;28;20025;-57
2023/09/15 07:48:04;;;;;;;67.10;62.58;;;;;;;;;;5017071;28;20104;-58
2023/09/15 07:50:33;;;;;;;42.33;39.57;;;;;;;;;;5026138;28;20030;-55
2023/09/15 07:52:58;;;;;;;98.30;92.25;;;;;;;;;;5015665;28;20025;-56
2023/09/15 07:55:24;;;;;;;89.50;83.93;;;;;;;;;;5026159;28;20052;-55
2023/09/15 07:57:49;;;;;;;98.97;91.32;;;;;;;;;;5027497;28;20444;-55
2023/09/15 08:00:14;;;;;;;203.32;187.07;;;;;;;;;;5029720;28;20022;-57
2023/09/15 08:02:39;;;;;;;111.90;105.17;;;;;;;;;;5052694;28;20044;-56
2023/09/15 08:05:05;;;;;;;66.40;61.83;;;;;;;;;;5040721;28;20029;-56
2023/09/15 08:07:30;;;;;;;142.57;133.17;;;;;;;;;;5023568;28;20025;-56
2023/09/15 08:09:56;;;;;;;135.07;126.30;;;;;;;;;;5024153;28;20116;-55
2023/09/15 08:12:22;;;;;;;175.23;162.38;;;;;;;;;;5015286;28;20029;-55
2023/09/15 08:14:47;;;;;;;133.95;125.50;;;;;;;;;;5021569;28;20096;-56
2023/09/15 08:17:12;;;;;;;220.00;204.87;;;;;;;;;;5054728;28;20013;-55
2023/09/15 08:19:37;;;;;;;200.13;185.82;;;;;;;;;;5032290;28;20026;-56
2023/09/15 08:22:03;;;;;;;136.57;127.13;;;;;;;;;;5022429;28;20030;-56
2023/09/15 08:24:28;;;;;;;139.33;128.90;;;;;;;;;;5022673;28;20112;-56
2023/09/15 08:26:53;;;;;;;148.13;138.40;;;;;;;;;;5021993;28;20033;-56
2023/09/15 08:29:18;;;;;;;126.33;118.23;;;;;;;;;;5032296;28;20612;-56
2023/09/15 08:31:43;;;;;;;138.30;128.73;;;;;;;;;;5031387;28;20032;-57
2023/09/15 08:34:09;;;;;;;256.73;238.60;;;;;;;;;;5017870;28;20030;-56
2023/09/15 08:36:34;;;;;;;112.27;105.20;;;;;;;;;;5014246;28;20026;-55
2023/09/15 08:39:00;;;;;;;;;;;;;;;;;;5021048;28;20652;-56
2023/09/15 08:41:47;;;;;;;261.90;240.93;;;;;;;;;;5021907;28;19905;-56
2023/09/15 08:44:16;;;;;;;115.05;107.32;;;;;;;;;;5031188;28;20025;-56
2023/09/15 08:46:41;;;;;;;119.15;111.75;;;;;;;;;;5025402;28;20045;-56
2023/09/15 08:49:08;;;;;;;130.38;121.90;;;;;;;;;;5017665;28;20080;-56
2023/09/15 08:51:33;;;;;;;83.47;78.57;;;;;;;;;;5013607;28;20469;-56
2023/09/15 08:53:59;;;;;;;292.80;272.73;;;;;;;;;;5018437;28;20167;-55
2023/09/15 08:56:24;;;;;;;86.28;81.22;;;;;;;;;;5022105;28;20037;-56
2023/09/15 08:58:49;;;;;;;145.80;136.43;;;;;;;;;;5036669;28;20028;-56
2023/09/15 09:01:15;;;;;;;181.63;169.40;;;;;;;;;;5053144;28;20100;-57
2023/09/15 09:03:40;;;;;;;205.95;192.00;;;;;;;;;;5052142;28;20530;-56
2023/09/15 09:06:09;;;;;;;299.17;275.63;;;;;;;;;;5034838;28;20033;-57
2023/09/15 09:08:37;;;;;;;104.50;97.97;;;;;;;;;;5024008;28;20053;-57
2023/09/15 09:11:03;;;;;;;126.72;118.75;;;;;;;;;;5033082;28;20596;-57
2023/09/15 09:13:28;;;;;;;368.30;335.83;;;;;;;;;;5033144;28;20052;-56
2023/09/15 09:15:53;;;;;;;233.73;213.38;;;;;;;;;;5033075;28;20017;-56
2023/09/15 09:18:19;;;;;;;318.80;291.47;;;;;;;;;;5032018;28;20021;-57
2023/09/15 09:20:46;;;;;;;246.98;228.98;;;;;;;;;;5048743;28;20468;-57
2023/09/15 09:23:12;;;;;;;312.58;288.23;;;;;;;;;;5020671;28;20468;-56
2023/09/15 09:25:39;;;;;;;254.32;235.77;;;;;;;;;;5030958;28;20506;-57
2023/09/15 09:28:04;;;;;;;252.77;234.55;;;;;;;;;;5033164;28;20473;-56
2023/09/15 09:30:30;;;;;;;210.83;196.10;;;;;;;;;;5031764;28;20036;-56
2023/09/15 09:32:56;;;;;;;312.63;287.03;;;;;;;;;;5044978;28;20087;-56
2023/09/15 09:35:21;;;;;;;;;;;;;;;;;;5032634;28;20371;-56
2023/09/15 09:37:47;;;;;;;444.60;400.05;;;;;;;;;;5029803;28;19909;-57
2023/09/15 09:40:12;;;;;;;;;;;;;;;;;;5013211;28;20022;-56
2023/09/15 09:42:38;;;;;;;343.80;317.13;;;;;;;;;;5012860;28;19917;-57
2023/09/15 09:45:03;;;;;;;306.60;282.37;;;;;;;;;;5013365;28;20037;-57
2023/09/15 09:47:29;;;;;;;367.35;339.13;;;;;;;;;;5013694;28;20014;-56
2023/09/15 09:49:54;;;;;;;215.02;199.13;;;;;;;;;;5043084;28;20025;-56
2023/09/15 09:52:20;;;;;;;301.40;278.43;;;;;;;;;;5016668;28;20442;-57
2023/09/15 09:54:49;;;;;;;388.77;357.88;;;;;;;;;;5012755;28;20393;-57
2023/09/15 09:57:15;;;;;;;510.38;467.65;;;;;;;;;;5012559;28;20164;-57
2023/09/15 09:59:40;;;;;;;375.90;346.15;;;;;;;;;;5019698;28;20025;-57
2023/09/15 10:02:05;;;;;;;388.93;355.03;;;;;;;;;;5039193;28;20027;-57
2023/09/15 10:04:31;;;;;;;439.60;397.80;;;;;;;;;;5050536;28;20493;-57
2023/09/15 10:06:56;;;;;;;418.00;383.73;;;;;;;;;;5019595;28;20025;-56
2023/09/15 10:09:21;;;;;;;420.65;386.65;;;;;;;;;;5021683;28;20497;-56
2023/09/15 10:11:47;;;;;;;497.70;449.70;;;;;;;;;;5032177;28;20485;-57
2023/09/15 10:14:12;;;;;;;258.52;238.27;;;;;;;;;;5032116;28;20025;-57
2023/09/15 10:16:37;;;;;;;471.47;426.33;;;;;;;;;;5029060;28;20100;-56
2023/09/15 10:19:03;;;;;;;330.83;303.83;;;;;;;;;;5043621;28;20450;-57
2023/09/15 10:21:28;;;;;;;;;;;;;;;;;;5024029;28;20503;-57
2023/09/15 10:24:04;;;;;;;341.10;314.67;;;;;;;;;;5025839;28;20369;-57
2023/09/15 10:26:30;;;;;;;465.98;422.05;;;;;;;;;;5011681;28;20076;-57
2023/09/15 10:28:55;;;;;;;375.60;344.23;;;;;;;;;;5010270;28;20416;-57
2023/09/15 10:31:21;;;;;;;319.97;291.30;;;;;;;;;;5029195;28;20039;-57
2023/09/15 10:33:47;;;;;;;413.35;379.08;;;;;;;;;;5044218;28;20076;-55
2023/09/15 10:36:14;;;;;;;357.63;327.00;;;;;;;;;;5023761;28;20009;-55
2023/09/15 10:38:41;;;;;;;457.40;418.20;;;;;;;;;;5032412;28;20021;-56
2023/09/15 10:41:09;;;;;;;425.58;389.48;;;;;;;;;;5018424;28;20109;-56
2023/09/15 10:43:34;;;;;;;407.40;377.45;;;;;;;;;;5011701;28;20492;-56
2023/09/15 10:46:02;;;;;;;550.10;504.70;;;;;;;;;;5023273;28;20116;-56
2023/09/15 10:48:36;;;;;;;355.98;324.65;;;;;;;;;;5035706;28;20473;-56
2023/09/15 10:51:05;;;;;;;326.88;300.02;;;;;;;;;;5024237;28;20017;-56
2023/09/15 10:53:40;;;;;;;417.60;384.25;;;;;;;;;;5031025;28;20810;-56
2023/09/15 10:56:05;;;;;;;348.63;318.83;;;;;;;;;;5031209;28;20017;-57
2023/09/15 10:58:31;;;;;;;452.00;418.00;;;;;;;;;;5016737;28;20120;-57
2023/09/15 11:00:57;;;;;;;480.98;442.35;;;;;;;;;;5011262;28;20068;-55
2023/09/15 11:03:24;;;;;;;405.57;370.00;;;;;;;;;;5028021;28;20021;-57
2023/09/15 11:05:49;;;;;;;383.08;348.85;;;;;;;;;;5030827;28;20029;-57
2023/09/15 11:08:14;;;;;;;456.70;415.27;;;;;;;;;;5031176;28;20020;-57
2023/09/15 11:10:40;;;;;;;399.20;367.77;;;;;;;;;;5030563;28;20420;-58
2023/09/15 11:13:05;;;;;;;445.85;409.73;;;;;;;;;;5030915;28;20025;-57
2023/09/15 11:15:32;;;;;;;408.93;373.43;;;;;;;;;;5024883;28;20026;-57
2023/09/15 11:17:57;;;;;;;464.77;424.75;;;;;;;;;;5030756;28;20023;-56
2023/09/15 11:20:22;;;;;;;375.35;341.65;;;;;;;;;;5030388;28;20028;-57
2023/09/15 11:22:53;;;;;;;471.75;432.42;;;;;;;;;;5028550;28;20025;-57
2023/09/15 11:25:18;;;;;;;397.10;363.35;;;;;;;;;;5031027;28;20024;-57
2023/09/15 11:27:46;;;;;;;403.53;369.23;;;;;;;;;;5030900;28;20018;-57
2023/09/15 11:30:11;;;;;;;523.45;448.23;;;;;;;;;;5023922;28;20025;-57
2023/09/15 11:32:37;;;;;;;632.85;572.95;;;;;;;;;;5027924;28;20396;-57
2023/09/15 11:35:09;;;;;;;431.42;398.38;;;;;;;;;;5012917;28;20132;-57
2023/09/15 11:37:34;;;;;;;476.92;433.67;;;;;;;;;;5029504;28;20022;-57
2023/09/15 11:39:59;;;;;;;506.90;461.83;;;;;;;;;;5021223;28;20488;-57
2023/09/15 11:42:25;;;;;;;396.03;359.87;;;;;;;;;;5014134;28;20022;-57
2023/09/15 11:44:50;;;;;;;469.90;428.65;;;;;;;;;;5039764;28;20048;-57
2023/09/15 11:47:16;;;;;;;467.88;421.77;;;;;;;;;;5035891;28;20037;-56
2023/09/15 11:49:41;;;;;;;499.40;460.50;;;;;;;;;;5011161;28;20486;-57
2023/09/15 11:52:07;;;;;;;500.67;457.98;;;;;;;;;;5009317;28;20033;-57
2023/09/15 11:54:32;;;;;;;494.67;448.42;;;;;;;;;;5028850;28;20477;-56
2023/09/15 11:56:58;;;;;;;582.73;531.40;;;;;;;;;;5046915;28;20024;-56
2023/09/15 11:59:24;;;;;;;485.08;440.20;;;;;;;;;;5050335;28;20988;-55
2023/09/15 12:01:54;;;;;;;603.50;551.50;;;;;;;;;;5021413;28;20022;-58
2023/09/15 12:04:20;;;;;;;556.22;506.88;;;;;;;;;;5026584;28;20048;-55
2023/09/15 12:06:46;;;;;;;452.42;408.60;;;;;;;;;;5039651;28;20029;-55
2023/09/15 12:09:12;;;;;;;598.58;547.58;;;;;;;;;;5033606;28;20508;-55
2023/09/15 12:11:41;;;;;;;476.00;430.00;;;;;;;;;;5024709;28;20029;-55
2023/09/15 12:14:07;;;;;;;408.88;373.45;;;;;;;;;;5049795;28;20021;-56
2023/09/15 12:16:32;;;;;;;601.47;546.17;;;;;;;;;;5025311;28;20500;-55
2023/09/15 12:18:58;;;;;;;473.33;426.45;;;;;;;;;;5020546;28;20025;-55
2023/09/15 12:21:28;;;;;;;549.75;491.25;;;;;;;;;;5019052;28;20045;-55
2023/09/15 12:23:54;;;;;;;521.85;472.05;;;;;;;;;;5019722;28;20022;-56
2023/09/15 12:26:20;;;;;;;593.30;535.75;;;;;;;;;;5031015;28;20014;-55
2023/09/15 12:28:46;;;;;;;;;;;;;;;;;;5026580;28;20021;-56
2023/09/15 12:31:15;;;;;;;555.17;503.05;;;;;;;;;;5023044;28;20077;-55
2023/09/15 12:33:41;;;;;;;474.73;430.63;;;;;;;;;;5016716;28;20026;-55
2023/09/15 12:36:09;;;;;;;498.77;458.98;;;;;;;;;;5027806;28;20071;-55
2023/09/15 12:38:34;;;;;;;416.00;380.80;;;;;;;;;;5013293;28;20040;-55
2023/09/15 12:41:00;;;;;;;538.60;492.20;;;;;;;;;;5020664;28;20237;-56
2023/09/15 12:43:26;;;;;;;578.88;528.40;;;;;;;;;;5027774;28;20037;-56
2023/09/15 12:45:51;;;;;;;395.57;360.60;;;;;;;;;;5017085;28;20029;-57
2023/09/15 12:48:16;;;;;;;447.37;409.83;;;;;;;;;;5016687;28;20472;-56
2023/09/15 12:50:41;;;;;;;604.37;548.53;;;;;;;;;;5018258;28;20036;-57
2023/09/15 12:53:06;;;;;;;526.25;478.42;;;;;;;;;;5015610;28;20105;-56
2023/09/15 12:55:31;;;;;;;600.63;526.33;;;;;;;;;;5021851;28;20029;-57
2023/09/15 12:57:57;;;;;;;520.83;468.00;;;;;;;;;;5033397;28;20069;-56
2023/09/15 13:00:22;;;;;;;496.63;450.40;;;;;;;;;;5031198;28;20036;-56
2023/09/15 13:02:47;;;;;;;506.10;463.53;;;;;;;;;;5013934;28;20390;-55
2023/09/15 13:05:12;;;;;;;535.58;462.55;;;;;;;;;;5025648;28;20009;-57
2023/09/15 13:07:42;;;;;;;455.65;404.17;;;;;;;;;;5017678;28;20053;-57
2023/09/15 13:10:07;;;;;;;448.80;409.10;;;;;;;;;;5039324;28;20013;-57
2023/09/15 13:12:32;;;;;;;422.05;383.67;;;;;;;;;;5022590;28;20084;-57
2023/09/15 13:14:58;;;;;;;465.03;428.43;;;;;;;;;;5013954;28;20024;-57
2023/09/15 13:17:23;;;;;;;339.57;311.23;;;;;;;;;;5016800;28;20402;-56
2023/09/15 13:19:48;;;;;;;524.63;477.60;;;;;;;;;;5031706;28;20020;-56
2023/09/15 13:22:13;;;;;;;369.07;338.53;;;;;;;;;;5026784;28;20017;-57
2023/09/15 13:24:38;;;;;;;385.67;353.17;;;;;;;;;;5031363;28;20021;-56
2023/09/15 13:27:04;;;;;;;449.83;411.00;;;;;;;;;;5026740;28;20049;-57
2023/09/15 13:29:29;;;;;;;416.30;378.75;;;;;;;;;;5030525;28;20014;-56
2023/09/15 13:31:54;;;;;;;408.50;371.07;;;;;;;;;;5012432;28;20030;-57
2023/09/15 13:34:20;;;;;;;496.40;454.83;;;;;;;;;;5023681;28;20108;-56
2023/09/15 13:36:45;;;;;;;465.88;427.17;;;;;;;;;;5032320;28;20026;-56
2023/09/15 13:39:11;;;;;;;355.75;327.15;;;;;;;;;;5030064;28;20071;-56
2023/09/15 13:41:36;;;;;;;490.75;450.90;;;;;;;;;;5030868;28;20083;-56
2023/09/15 13:44:02;;;;;;;503.00;459.73;;;;;;;;;;5018216;28;20112;-57
2023/09/15 13:46:28;;;;;;;398.00;360.77;;;;;;;;;;5019315;28;20029;-57
2023/09/15 13:48:53;;;;;;;363.93;334.13;;;;;;;;;;5017877;28;20160;-57
2023/09/15 13:51:18;;;;;;;398.63;364.17;;;;;;;;;;5028318;28;20021;-57
2023/09/15 13:53:44;;;;;;;514.80;471.30;;;;;;;;;;5016749;28;20042;-57
2023/09/15 13:56:09;;;;;;;465.05;424.13;;;;;;;;;;5020796;28;20451;-56
2023/09/15 13:58:40;;;;;;;474.43;426.00;;;;;;;;;;5016709;28;20116;-57
2023/09/15 14:01:06;;;;;;;574.38;528.72;;;;;;;;;;5015559;28;20021;-56